createdAt,value
2022-09-11T00:01:45.691Z,54.30
2022-09-11T00:04:13.997Z,54.50
2022-09-11T00:06:41.620Z,52.33
2022-09-11T00:09:10.346Z,51.97
2022-09-11T00:11:44.659Z,52.93
2022-09-11T00:14:16.001Z,59.50
2022-09-11T00:16:47.785Z,46.90
2022-09-11T00:19:21.941Z,49.60
2022-09-11T00:21:52.411Z,48.50
2022-09-11T00:24:20.010Z,50.80
2022-09-11T00:26:47.934Z,47.50
2022-09-11T00:29:15.708Z,50.80
2022-09-11T00:31:43.966Z,48.27
2022-09-11T00:34:11.862Z,50.67
2022-09-11T00:36:41.858Z,46.70
2022-09-11T00:39:12.969Z,45.77
2022-09-11T00:41:46.368Z,39.20
2022-09-11T00:44:19.511Z,46.57
2022-09-11T00:46:55.589Z,47.30
2022-09-11T00:49:44.809Z,47.20
2022-09-11T00:52:34.650Z,47.30
2022-09-11T00:55:15.919Z,48.60
2022-09-11T00:58:01.789Z,49.80
2022-09-11T01:00:29.783Z,51.97
2022-09-11T01:02:59.167Z,49.27
2022-09-11T01:05:34.666Z,54.20
2022-09-11T01:08:03.936Z,61.07
2022-09-11T01:11:25.100Z,56.87
2022-09-11T01:15:05.558Z,57.30
2022-09-11T01:18:18.209Z,52.87
2022-09-11T01:21:38.289Z,53.30
2022-09-11T01:25:03.290Z,53.77
2022-09-11T01:27:50.847Z,48.50
2022-09-11T01:30:41.282Z,48.53
2022-09-11T01:33:34.891Z,50.10
2022-09-11T01:36:31.839Z,49.70
2022-09-11T01:39:05.993Z,49.20
2022-09-11T01:41:48.971Z,55.70
2022-09-11T01:44:41.848Z,62.17
2022-09-11T01:47:13.022Z,63.83
2022-09-11T01:50:12.748Z,61.87
2022-09-11T01:53:10.666Z,66.00
2022-09-11T01:56:13.544Z,64.93
2022-09-11T01:58:46.971Z,67.87
2022-09-11T02:01:34.008Z,66.40
2022-09-11T02:04:26.216Z,67.20
2022-09-11T02:07:25.148Z,66.20
2022-09-11T02:10:42.716Z,67.00
2022-09-11T02:13:29.806Z,70.70
2022-09-11T02:16:23.294Z,64.37
2022-09-11T02:19:09.215Z,65.17
2022-09-11T02:21:39.148Z,65.70
2022-09-11T02:24:09.681Z,65.63
2022-09-11T02:26:55.069Z,67.40
2022-09-11T02:29:24.494Z,65.70
2022-09-11T02:31:53.065Z,70.10
2022-09-11T02:34:35.850Z,65.20
2022-09-11T02:38:06.724Z,75.40
2022-09-11T02:41:46.519Z,70.47
2022-09-11T02:45:36.996Z,72.30
2022-09-11T02:48:36.834Z,68.40
2022-09-11T02:51:46.897Z,73.37
2022-09-11T02:55:10.818Z,68.93
2022-09-11T02:58:22.276Z,79.73
2022-09-11T03:00:51.543Z,61.67
2022-09-11T03:03:20.783Z,71.67
2022-09-11T03:05:49.152Z,69.00
2022-09-11T03:08:18.716Z,86.63
2022-09-11T03:10:46.828Z,64.37
2022-09-11T03:13:14.961Z,70.60
2022-09-11T03:15:45.476Z,61.83
2022-09-11T03:18:15.783Z,92.40
2022-09-11T03:20:47.486Z,71.37
2022-09-11T03:23:15.313Z,74.67
2022-09-11T03:25:42.918Z,79.73
2022-09-11T03:28:11.801Z,75.67
2022-09-11T03:30:44.157Z,75.03
2022-09-11T03:33:12.200Z,82.57
2022-09-11T03:35:40.081Z,76.57
2022-09-11T03:38:09.518Z,67.27
2022-09-11T03:40:42.731Z,76.13
2022-09-11T03:43:12.484Z,67.10
2022-09-11T03:45:40.346Z,70.10
2022-09-11T03:48:11.767Z,60.63
2022-09-11T03:50:39.557Z,71.33
2022-09-11T03:53:07.191Z,71.63
2022-09-11T03:55:35.200Z,53.97
2022-09-11T03:58:02.784Z,82.47
2022-09-11T04:00:30.621Z,70.20
2022-09-11T04:03:00.543Z,66.00
2022-09-11T04:05:41.374Z,57.60
2022-09-11T04:08:13.358Z,59.37
2022-09-11T04:10:45.266Z,69.17
2022-09-11T04:13:12.956Z,60.07
2022-09-11T04:15:40.791Z,59.70
2022-09-11T04:18:09.707Z,60.93
2022-09-11T04:20:40.184Z,62.00
2022-09-11T04:23:08.992Z,74.63
2022-09-11T04:25:37.754Z,66.90
2022-09-11T04:28:05.360Z,55.70
2022-09-11T04:30:38.752Z,61.60
2022-09-11T04:33:09.136Z,59.43
2022-09-11T04:35:42.042Z,57.27
2022-09-11T04:38:11.152Z,54.43
2022-09-11T04:40:39.475Z,53.40
2022-09-11T04:43:08.060Z,76.13
2022-09-11T04:45:36.723Z,53.93
2022-09-11T04:48:06.139Z,58.50
2022-09-11T04:50:33.725Z,57.77
2022-09-11T04:53:15.701Z,54.60
2022-09-11T04:55:43.890Z,66.30
2022-09-11T04:58:11.732Z,58.00
2022-09-11T05:00:39.639Z,68.33
2022-09-11T05:03:07.977Z,72.50
2022-09-11T05:05:35.554Z,73.40
2022-09-11T05:08:04.150Z,67.77
2022-09-11T05:10:32.083Z,84.50
2022-09-11T05:12:59.655Z,63.97
2022-09-11T05:15:27.988Z,53.40
2022-09-11T05:17:55.614Z,62.63
2022-09-11T05:20:23.322Z,63.10
2022-09-11T05:22:53.685Z,66.13
2022-09-11T05:25:21.374Z,73.33
2022-09-11T05:27:50.259Z,62.97
2022-09-11T05:30:18.137Z,67.70
2022-09-11T05:32:45.758Z,62.00
2022-09-11T05:35:13.564Z,63.37
2022-09-11T05:37:41.453Z,57.50
2022-09-11T05:40:12.691Z,57.33
2022-09-11T05:42:41.974Z,59.87
2022-09-11T05:45:10.233Z,63.80
2022-09-11T05:47:37.816Z,59.27
2022-09-11T05:50:19.463Z,56.97
2022-09-11T05:52:54.219Z,65.53
2022-09-11T05:55:21.865Z,53.17
2022-09-11T05:57:53.569Z,58.30
2022-09-11T06:00:22.182Z,59.37
2022-09-11T06:02:54.991Z,59.73
2022-09-11T06:05:26.115Z,49.63
2022-09-11T06:07:55.446Z,55.27
2022-09-11T06:10:24.262Z,73.43
2022-09-11T06:12:52.532Z,60.30
2022-09-11T06:15:42.986Z,62.33
2022-09-11T06:18:08.664Z,62.07
2022-09-11T06:20:36.249Z,54.80
2022-09-11T06:23:09.408Z,59.77
2022-09-11T06:25:41.468Z,57.93
2022-09-11T06:28:21.354Z,56.27
2022-09-11T06:30:55.126Z,55.77
2022-09-11T06:33:23.697Z,54.10
2022-09-11T06:36:04.484Z,55.23
2022-09-11T06:38:32.760Z,57.80
2022-09-11T06:41:11.242Z,51.50
2022-09-11T06:43:39.783Z,64.00
2022-09-11T06:46:15.092Z,58.50
2022-09-11T06:48:46.343Z,54.70
2022-09-11T06:51:20.298Z,44.90
2022-09-11T06:53:59.485Z,44.70
2022-09-11T06:56:34.567Z,48.10
2022-09-11T06:59:02.141Z,52.87
2022-09-11T07:01:32.261Z,52.03
2022-09-11T07:04:03.402Z,46.93
2022-09-11T07:06:35.155Z,46.13
2022-09-11T07:09:03.279Z,46.03
2022-09-11T07:11:43.834Z,44.20
2022-09-11T07:14:11.854Z,41.37
2022-09-11T07:16:42.232Z,44.07
2022-09-11T07:19:13.820Z,40.73
2022-09-11T07:21:41.921Z,42.00
2022-09-11T07:24:10.353Z,40.60
2022-09-11T07:26:44.129Z,42.67
2022-09-11T07:29:18.541Z,45.03
2022-09-11T07:31:47.868Z,43.30
2022-09-11T07:34:16.901Z,38.77
2022-09-11T07:36:45.728Z,37.53
2022-09-11T07:39:13.792Z,42.30
2022-09-11T07:41:56.679Z,34.67
2022-09-11T07:44:29.248Z,36.30
2022-09-11T07:46:57.948Z,35.00
2022-09-11T07:49:26.178Z,32.43
2022-09-11T07:51:55.584Z,31.47
2022-09-11T07:54:38.279Z,31.23
2022-09-11T07:57:07.363Z,31.70
2022-09-11T08:02:18.296Z,28.70
2022-09-11T08:04:45.921Z,29.30
2022-09-11T08:07:13.956Z,30.10
2022-09-11T08:09:41.632Z,29.50
2022-09-11T08:12:11.229Z,27.57
2022-09-11T08:14:40.642Z,27.47
2022-09-11T08:17:17.265Z,27.53
2022-09-11T08:19:45.436Z,27.37
2022-09-11T08:24:55.704Z,27.70
2022-09-11T08:27:23.675Z,27.77
2022-09-11T08:29:51.665Z,28.57
2022-09-11T08:32:20.044Z,26.73
2022-09-11T08:34:48.162Z,27.70
2022-09-11T08:37:15.752Z,25.80
2022-09-11T08:39:43.339Z,27.40
2022-09-11T08:42:17.707Z,28.37
2022-09-11T08:45:00.570Z,29.77
2022-09-11T08:47:54.178Z,30.50
2022-09-11T08:50:41.554Z,26.63
2022-09-11T08:53:19.047Z,25.93
2022-09-11T08:56:09.237Z,26.37
2022-09-11T08:59:21.915Z,22.73
2022-09-11T09:02:32.681Z,21.10
2022-09-11T09:05:28.358Z,21.13
2022-09-11T09:08:18.366Z,21.90
2022-09-11T09:12:05.456Z,19.27
2022-09-11T09:15:39.168Z,20.10
2022-09-11T09:18:38.683Z,19.83
2022-09-11T09:21:31.524Z,19.80
2022-09-11T09:24:19.383Z,19.50
2022-09-11T09:26:57.597Z,18.70
2022-09-11T09:29:38.556Z,19.07
2022-09-11T09:32:25.685Z,19.30
2022-09-11T09:35:08.053Z,22.50
2022-09-11T09:37:38.436Z,20.87
2022-09-11T09:40:14.813Z,20.57
2022-09-11T09:43:18.172Z,18.80
2022-09-11T09:46:20.729Z,18.90
2022-09-11T09:48:49.420Z,17.50
2022-09-11T09:51:17.648Z,18.90
2022-09-11T09:54:01.960Z,19.73
2022-09-11T09:56:37.772Z,18.87
2022-09-11T09:59:35.424Z,18.50
2022-09-11T10:02:03.546Z,17.27
2022-09-11T10:04:31.364Z,18.03
2022-09-11T10:07:14.202Z,16.00
2022-09-11T10:10:03.081Z,15.80
2022-09-11T10:12:33.812Z,17.40
2022-09-11T10:15:04.791Z,18.63
2022-09-11T10:17:38.605Z,17.70
2022-09-11T10:20:26.039Z,16.00
2022-09-11T10:22:56.156Z,16.70
2022-09-11T10:25:30.188Z,30.70
2022-09-11T10:28:15.184Z,28.60
2022-09-11T10:31:04.636Z,33.20
2022-09-11T10:33:41.596Z,28.53
2022-09-11T10:36:12.328Z,32.53
2022-09-11T10:38:48.610Z,24.13
2022-09-11T10:41:34.335Z,23.40
2022-09-11T10:44:16.037Z,35.03
2022-09-11T10:46:46.236Z,36.60
2022-09-11T10:49:23.772Z,31.30
2022-09-11T10:52:22.355Z,41.73
2022-09-11T10:55:16.953Z,31.80
2022-09-11T10:57:59.662Z,30.50
2022-09-11T11:00:31.393Z,32.27
2022-09-11T11:03:27.875Z,31.63
2022-09-11T11:06:46.769Z,26.37
2022-09-11T11:09:43.230Z,25.30
2022-09-11T11:12:50.838Z,22.50
2022-09-11T11:15:48.967Z,24.47
2022-09-11T11:19:18.958Z,21.50
2022-09-11T11:22:08.558Z,22.70
2022-09-11T11:25:23.057Z,26.47
2022-09-11T11:28:50.516Z,27.33
2022-09-11T11:31:55.780Z,23.50
2022-09-11T11:35:26.711Z,24.63
2022-09-11T11:38:39.543Z,22.03
2022-09-11T11:41:44.941Z,19.30
2022-09-11T11:44:49.837Z,19.70
2022-09-11T11:47:32.728Z,19.77
2022-09-11T11:50:32.036Z,19.50
2022-09-11T11:53:27.360Z,21.07
2022-09-11T11:56:29.154Z,20.00
2022-09-11T11:59:35.750Z,18.70
2022-09-11T12:02:37.472Z,20.83
2022-09-11T12:05:24.416Z,20.03
2022-09-11T12:07:53.599Z,22.57
2022-09-11T12:10:40.797Z,21.10
2022-09-11T12:13:20.735Z,23.47
2022-09-11T12:16:36.635Z,25.00
2022-09-11T12:19:22.634Z,24.17
2022-09-11T12:21:55.753Z,23.07
2022-09-11T12:25:00.579Z,23.30
2022-09-11T12:27:37.401Z,21.13
2022-09-11T12:30:17.560Z,20.17
2022-09-11T12:33:00.322Z,18.73
2022-09-11T12:35:51.526Z,18.27
2022-09-11T12:38:40.770Z,18.13
2022-09-11T12:41:35.691Z,19.20
2022-09-11T12:44:25.757Z,18.77
2022-09-11T12:46:59.261Z,18.73
2022-09-11T12:49:27.685Z,16.50
2022-09-11T12:52:02.079Z,21.10
2022-09-11T12:54:42.611Z,18.77
2022-09-11T12:57:30.907Z,20.10
2022-09-11T13:00:22.316Z,21.43
2022-09-11T13:02:59.304Z,18.23
2022-09-11T13:05:39.860Z,21.60
2022-09-11T13:08:24.944Z,22.10
2022-09-11T13:10:52.748Z,27.33
2022-09-11T13:13:47.040Z,26.50
2022-09-11T13:16:37.216Z,22.57
2022-09-11T13:19:20.862Z,19.57
2022-09-11T13:21:53.323Z,17.90
2022-09-11T13:24:35.042Z,21.80
2022-09-11T13:27:26.637Z,20.00
2022-09-11T13:29:59.327Z,21.87
2022-09-11T13:32:27.414Z,22.30
2022-09-11T13:35:03.477Z,22.57
2022-09-11T13:38:15.265Z,24.80
2022-09-11T13:41:20.198Z,23.60
2022-09-11T13:44:00.051Z,22.53
2022-09-11T13:46:34.886Z,26.23
2022-09-11T13:49:12.034Z,25.83
2022-09-11T13:51:48.013Z,25.50
2022-09-11T13:54:38.334Z,25.87
2022-09-11T13:57:21.496Z,25.80
2022-09-11T14:00:00.939Z,26.27
2022-09-11T14:02:52.700Z,24.20
2022-09-11T14:05:31.884Z,24.70
2022-09-11T14:08:32.485Z,21.50
2022-09-11T14:11:21.260Z,25.20
2022-09-11T14:14:14.056Z,24.07
2022-09-11T14:17:01.379Z,22.70
2022-09-11T14:19:36.846Z,18.80
2022-09-11T14:22:29.502Z,19.80
2022-09-11T14:25:22.029Z,21.43
2022-09-11T14:27:50.846Z,20.20
2022-09-11T14:30:37.411Z,20.70
2022-09-11T14:33:27.162Z,21.53
2022-09-11T14:36:19.438Z,21.47
2022-09-11T14:38:48.131Z,21.07
2022-09-11T14:41:15.665Z,18.37
2022-09-11T14:43:46.551Z,18.67
2022-09-11T14:46:16.745Z,18.73
2022-09-11T14:48:44.375Z,18.10
2022-09-11T14:51:13.753Z,18.23
2022-09-11T14:53:43.548Z,19.13
2022-09-11T14:56:11.413Z,19.33
2022-09-11T14:58:39.067Z,18.37
2022-09-11T15:01:06.851Z,17.50
2022-09-11T15:03:34.778Z,17.33
2022-09-11T15:06:02.518Z,16.33
2022-09-11T15:08:30.134Z,16.20
2022-09-11T15:10:57.685Z,14.23
2022-09-11T15:13:25.296Z,14.40
2022-09-11T15:15:53.621Z,14.30
2022-09-11T15:18:21.316Z,15.57
2022-09-11T15:20:48.835Z,17.00
2022-09-11T15:23:16.722Z,16.00
2022-09-11T15:25:44.539Z,16.37
2022-09-11T15:28:12.696Z,14.97
2022-09-11T15:30:40.581Z,17.57
2022-09-11T15:33:08.818Z,15.70
2022-09-11T15:35:36.399Z,16.10
2022-09-11T15:38:04.582Z,14.60
2022-09-11T15:40:32.648Z,15.87
2022-09-11T15:43:00.366Z,15.43
2022-09-11T15:45:28.101Z,15.23
2022-09-11T15:47:59.371Z,16.37
2022-09-11T15:50:30.190Z,15.07
2022-09-11T15:52:59.021Z,14.00
2022-09-11T15:55:30.244Z,10.63
2022-09-11T15:58:00.853Z,12.10
2022-09-11T16:00:29.443Z,13.30
2022-09-11T16:02:57.226Z,14.30
2022-09-11T16:05:24.766Z,13.23
2022-09-11T16:07:52.908Z,12.67
2022-09-11T16:10:21.072Z,13.37
2022-09-11T16:12:50.240Z,12.57
2022-09-11T16:15:18.324Z,15.87
2022-09-11T16:17:45.878Z,14.07
2022-09-11T16:20:15.400Z,12.10
2022-09-11T16:22:42.988Z,13.00
2022-09-11T16:25:11.156Z,14.47
2022-09-11T16:27:38.933Z,15.00
2022-09-11T16:32:55.746Z,12.93
2022-09-11T16:35:23.651Z,13.37
2022-09-11T16:37:51.205Z,13.30
2022-09-11T16:40:18.874Z,14.63
2022-09-11T16:42:46.506Z,12.73
2022-09-11T16:45:14.089Z,12.93
2022-09-11T16:47:41.868Z,12.30
2022-09-11T16:50:09.916Z,12.33
2022-09-11T16:52:39.184Z,14.23
2022-09-11T16:55:09.886Z,12.60
2022-09-11T16:57:38.957Z,11.80
2022-09-11T17:00:10.187Z,14.70
2022-09-11T17:02:38.556Z,14.30
2022-09-11T17:05:09.298Z,13.50
2022-09-11T17:07:37.224Z,13.13
2022-09-11T17:10:05.884Z,14.47
2022-09-11T17:12:33.479Z,14.07
2022-09-11T17:15:02.011Z,16.13
2022-09-11T17:17:31.372Z,15.07
2022-09-11T17:19:59.551Z,14.93
2022-09-11T17:22:27.420Z,16.70
2022-09-11T17:24:55.117Z,15.00
2022-09-11T17:27:23.356Z,15.27
2022-09-11T17:29:51.198Z,15.10
2022-09-11T17:32:29.029Z,14.97
2022-09-11T17:34:58.741Z,14.03
2022-09-11T17:37:27.793Z,14.70
2022-09-11T17:39:56.278Z,14.20
2022-09-11T17:42:26.788Z,14.63
2022-09-11T17:44:54.439Z,10.90
2022-09-11T17:47:22.584Z,14.70
2022-09-11T17:49:50.261Z,13.17
2022-09-11T17:52:21.590Z,13.80
2022-09-11T17:54:49.346Z,13.23
2022-09-11T17:57:17.047Z,15.10
2022-09-11T17:59:44.750Z,13.60
2022-09-11T18:02:17.407Z,13.67
2022-09-11T18:04:48.523Z,12.90
2022-09-11T18:07:18.153Z,13.80
2022-09-11T18:09:47.021Z,13.37
2022-09-11T18:12:14.941Z,16.60
2022-09-11T18:14:45.565Z,15.30
2022-09-11T18:17:13.313Z,15.97
2022-09-11T18:19:40.898Z,15.27
2022-09-11T18:22:09.790Z,15.40
2022-09-11T18:24:38.071Z,14.77
2022-09-11T18:27:07.522Z,16.43
2022-09-11T18:29:35.330Z,15.47
2022-09-11T18:32:03.624Z,16.40
2022-09-11T18:34:31.258Z,16.90
2022-09-11T18:37:00.005Z,15.30
2022-09-11T18:39:27.739Z,14.87
2022-09-11T18:41:55.649Z,15.13
2022-09-11T18:44:25.961Z,16.00
2022-09-11T18:46:55.855Z,16.47
2022-09-11T18:49:24.497Z,17.70
2022-09-11T18:51:53.817Z,15.07
2022-09-11T18:54:21.839Z,16.40
2022-09-11T18:56:51.385Z,15.57
2022-09-11T18:59:28.166Z,19.50
2022-09-11T19:02:07.599Z,17.60
2022-09-11T19:04:43.803Z,19.90
2022-09-11T19:07:18.250Z,17.90
2022-09-11T19:09:49.333Z,20.67
2022-09-11T19:12:19.932Z,21.53
2022-09-11T19:15:00.100Z,21.73
2022-09-11T19:17:30.595Z,23.83
2022-09-11T19:20:03.779Z,23.70
2022-09-11T19:22:34.448Z,21.97
2022-09-11T19:25:10.945Z,20.03
2022-09-11T19:27:44.548Z,21.40
2022-09-11T19:30:17.032Z,22.33
2022-09-11T19:32:45.368Z,20.50
2022-09-11T19:35:15.148Z,21.70
2022-09-11T19:37:43.363Z,19.77
2022-09-11T19:40:12.721Z,21.53
2022-09-11T19:42:44.263Z,24.63
2022-09-11T19:45:15.717Z,21.37
2022-09-11T19:47:43.968Z,23.00
2022-09-11T19:50:14.580Z,20.60
2022-09-11T19:52:42.154Z,19.70
2022-09-11T19:55:10.354Z,18.80
2022-09-11T19:57:38.659Z,19.33
2022-09-11T20:00:09.901Z,19.47
2022-09-11T20:02:37.467Z,18.93
2022-09-11T20:05:06.868Z,19.60
2022-09-11T20:07:37.844Z,17.87
2022-09-11T20:10:08.657Z,17.60
2022-09-11T20:12:37.247Z,17.30
2022-09-11T20:15:07.182Z,16.93
2022-09-11T20:17:34.872Z,17.30
2022-09-11T20:20:02.786Z,17.73
2022-09-11T20:22:30.968Z,17.40
2022-09-11T20:25:00.347Z,18.53
2022-09-11T20:27:28.285Z,18.70
2022-09-11T20:29:57.335Z,18.93
2022-09-11T20:32:24.908Z,16.63
2022-09-11T20:34:52.571Z,19.07
2022-09-11T20:37:20.104Z,17.20
2022-09-11T20:39:48.371Z,18.93
2022-09-11T20:42:15.929Z,19.77
2022-09-11T20:44:45.426Z,21.17
2022-09-11T20:47:14.210Z,19.77
2022-09-11T20:49:42.540Z,19.43
2022-09-11T20:52:13.082Z,21.60
2022-09-11T20:54:41.248Z,22.77
2022-09-11T20:57:09.771Z,21.60
2022-09-11T20:59:37.420Z,19.47
2022-09-11T21:02:05.360Z,19.73
2022-09-11T21:04:33.031Z,18.93
2022-09-11T21:07:00.757Z,20.80
2022-09-11T21:09:28.704Z,21.80
2022-09-11T21:11:59.085Z,21.90
2022-09-11T21:14:26.812Z,22.20
2022-09-11T21:16:54.528Z,20.70
2022-09-11T21:19:22.076Z,22.70
2022-09-11T21:21:49.823Z,24.33
2022-09-11T21:24:17.484Z,23.70
2022-09-11T21:26:45.076Z,23.40
2022-09-11T21:29:14.153Z,25.90
2022-09-11T21:31:42.133Z,26.00
2022-09-11T21:34:11.407Z,23.70
2022-09-11T21:36:39.152Z,24.97
2022-09-11T21:39:07.072Z,25.03
2022-09-11T21:41:35.572Z,24.47
2022-09-11T21:44:04.095Z,28.23
2022-09-11T21:46:32.118Z,28.50
2022-09-11T21:49:01.320Z,25.30
2022-09-11T21:51:29.354Z,24.47
2022-09-11T21:53:59.190Z,27.63
2022-09-11T21:56:33.081Z,27.43
2022-09-11T21:59:01.956Z,29.17
2022-09-11T22:01:31.922Z,32.70
2022-09-11T22:04:01.196Z,32.10
2022-09-11T22:06:30.425Z,29.60
2022-09-11T22:08:58.822Z,28.67
2022-09-11T22:11:26.880Z,28.07
2022-09-11T22:13:55.550Z,25.93
2022-09-11T22:16:23.690Z,27.40
2022-09-11T22:18:54.864Z,27.50
2022-09-11T22:21:22.648Z,30.17
2022-09-11T22:23:50.174Z,31.90
2022-09-11T22:26:23.705Z,31.40
2022-09-11T22:28:52.427Z,33.03
2022-09-11T22:31:25.151Z,28.37
2022-09-11T22:33:55.392Z,31.33
2022-09-11T22:36:29.980Z,31.63
2022-09-11T22:38:59.523Z,30.77
2022-09-11T22:41:27.902Z,30.50
2022-09-11T22:43:55.542Z,33.63
2022-09-11T22:46:26.942Z,30.43
2022-09-11T22:48:56.186Z,31.50
2022-09-11T22:51:23.800Z,33.60
2022-09-11T22:53:51.962Z,29.47
2022-09-11T22:56:19.556Z,32.90
2022-09-11T22:58:47.595Z,27.53
2022-09-11T23:01:21.950Z,30.77
2022-09-11T23:03:53.473Z,26.93
2022-09-11T23:06:40.958Z,32.50
2022-09-11T23:09:16.861Z,30.10
2022-09-11T23:11:46.565Z,29.60
2022-09-11T23:14:15.085Z,29.63
2022-09-11T23:16:43.991Z,29.70
2022-09-11T23:19:14.986Z,29.50
2022-09-11T23:21:43.459Z,32.40
2022-09-11T23:24:14.776Z,30.87
2022-09-11T23:26:43.230Z,29.73
2022-09-11T23:29:13.915Z,28.90
2022-09-11T23:31:44.678Z,33.50
2022-09-11T23:34:17.497Z,34.60
2022-09-11T23:36:45.515Z,34.90
2022-09-11T23:39:14.010Z,30.37
2022-09-11T23:41:41.700Z,30.37
2022-09-11T23:44:10.604Z,30.03
2022-09-11T23:46:38.356Z,31.23
2022-09-11T23:49:07.147Z,30.77
2022-09-11T23:51:34.874Z,33.50
2022-09-11T23:54:02.527Z,30.57
2022-09-11T23:56:30.701Z,30.00
2022-09-11T23:58:58.290Z,29.83
